createdAt,value
2023-03-30T00:03:07.959Z,4.05
2023-03-30T00:07:13.079Z,3.78
2023-03-30T00:11:17.381Z,4.32
2023-03-30T00:15:22.726Z,4.03
2023-03-30T00:19:26.580Z,5.35
2023-03-30T00:23:31.530Z,4.18
2023-03-30T00:27:34.733Z,3.80
2023-03-30T00:31:37.964Z,4.75
2023-03-30T00:35:41.209Z,10.23
2023-03-30T00:39:45.724Z,4.03
2023-03-30T00:44:00.835Z,4.70
2023-03-30T00:48:08.445Z,3.92
2023-03-30T00:52:13.244Z,4.65
2023-03-30T00:56:20.613Z,4.80
2023-03-30T01:00:23.886Z,4.90
2023-03-30T01:04:28.396Z,4.47
2023-03-30T01:08:33.493Z,3.85
2023-03-30T01:12:38.916Z,5.35
2023-03-30T01:16:49.016Z,5.63
2023-03-30T01:21:30.038Z,5.40
2023-03-30T01:25:57.834Z,4.03
2023-03-30T01:30:25.628Z,5.30
2023-03-30T01:35:10.396Z,5.00
2023-03-30T01:39:23.274Z,4.30
2023-03-30T01:43:35.629Z,4.30
2023-03-30T01:47:43.571Z,4.50
2023-03-30T01:51:52.336Z,4.63
2023-03-30T01:56:02.597Z,4.90
2023-03-30T02:00:14.738Z,4.88
2023-03-30T02:04:21.639Z,5.78
2023-03-30T02:08:30.782Z,4.63
2023-03-30T02:12:36.356Z,3.83
2023-03-30T02:16:43.819Z,4.65
2023-03-30T02:20:47.641Z,3.65
2023-03-30T02:24:54.202Z,6.15
2023-03-30T02:28:58.985Z,3.95
2023-03-30T02:33:06.252Z,4.78
2023-03-30T02:37:25.033Z,4.40
2023-03-30T02:41:39.539Z,4.75
2023-03-30T02:45:54.659Z,5.32
2023-03-30T02:50:02.880Z,6.22
2023-03-30T02:54:19.378Z,4.95
2023-03-30T02:58:45.985Z,5.78
2023-03-30T03:02:59.490Z,5.10
2023-03-30T03:07:05.607Z,4.88
2023-03-30T03:11:09.107Z,5.40
2023-03-30T03:15:13.906Z,6.65
2023-03-30T03:19:30.774Z,5.72
2023-03-30T03:23:37.124Z,7.25
2023-03-30T03:27:47.345Z,4.93
2023-03-30T03:31:56.474Z,5.28
2023-03-30T03:36:04.348Z,6.28
2023-03-30T03:40:11.474Z,8.48
2023-03-30T03:44:15.613Z,5.90
2023-03-30T03:48:20.720Z,6.85
2023-03-30T03:52:27.198Z,7.88
2023-03-30T03:56:30.294Z,5.80
2023-03-30T04:00:33.928Z,6.80
2023-03-30T04:04:37.490Z,6.05
2023-03-30T04:08:42.100Z,6.28
2023-03-30T04:13:17.345Z,5.22
2023-03-30T04:17:58.226Z,5.60
2023-03-30T04:22:25.479Z,6.80
2023-03-30T04:26:50.452Z,5.25
2023-03-30T04:31:12.939Z,6.32
2023-03-30T04:35:16.643Z,6.60
2023-03-30T04:39:40.070Z,6.55
2023-03-30T04:44:12.787Z,6.70
2023-03-30T04:48:35.532Z,6.88
2023-03-30T04:53:11.165Z,8.13
2023-03-30T04:57:46.479Z,6.07
2023-03-30T05:02:17.296Z,5.80
2023-03-30T05:06:30.989Z,7.38
2023-03-30T05:10:54.400Z,7.88
2023-03-30T05:15:17.721Z,6.43
2023-03-30T05:19:37.480Z,5.95
2023-03-30T05:24:03.800Z,7.90
2023-03-30T05:28:43.238Z,6.45
2023-03-30T05:33:05.311Z,6.57
2023-03-30T05:37:31.926Z,6.85
2023-03-30T05:41:57.804Z,7.80
2023-03-30T05:46:28.010Z,7.93
2023-03-30T05:50:53.019Z,7.70
2023-03-30T05:55:08.211Z,7.18
2023-03-30T05:59:34.451Z,6.45
2023-03-30T06:04:04.066Z,6.93
2023-03-30T06:08:08.910Z,7.32
2023-03-30T06:12:13.894Z,6.40
2023-03-30T06:16:17.203Z,6.40
2023-03-30T06:20:21.718Z,6.45
2023-03-30T06:24:26.692Z,6.55
2023-03-30T06:28:32.284Z,7.47
2023-03-30T06:32:35.488Z,6.97
2023-03-30T06:37:01.238Z,7.38
2023-03-30T06:41:08.447Z,7.25
2023-03-30T06:45:15.473Z,7.80
2023-03-30T06:49:19.415Z,6.28
2023-03-30T06:53:42.403Z,6.70
2023-03-30T06:57:45.670Z,6.80
2023-03-30T07:01:51.085Z,7.95
2023-03-30T07:06:07.763Z,6.85
2023-03-30T07:10:13.102Z,5.13
2023-03-30T07:14:16.145Z,5.72
2023-03-30T07:18:22.035Z,7.05
2023-03-30T07:22:26.072Z,6.25
2023-03-30T07:26:29.466Z,6.55
2023-03-30T07:30:41.929Z,6.97
2023-03-30T07:34:48.454Z,7.07
2023-03-30T07:38:53.050Z,6.32
2023-03-30T07:42:56.788Z,7.07
2023-03-30T07:47:01.710Z,6.22
2023-03-30T07:51:09.305Z,8.48
2023-03-30T07:55:18.682Z,5.05
2023-03-30T07:59:28.978Z,7.97
2023-03-30T08:03:39.876Z,4.95
2023-03-30T08:07:44.807Z,6.38
2023-03-30T08:11:57.273Z,8.70
2023-03-30T08:16:01.486Z,6.78
2023-03-30T08:20:10.735Z,6.53
2023-03-30T08:24:15.202Z,5.82
2023-03-30T08:28:18.266Z,8.15
2023-03-30T08:32:21.290Z,7.40
2023-03-30T08:36:24.349Z,7.75
2023-03-30T08:40:29.005Z,5.68
2023-03-30T08:44:35.352Z,5.72
2023-03-30T08:48:40.114Z,6.65
2023-03-30T08:52:43.990Z,6.72
2023-03-30T08:56:58.964Z,8.48
2023-03-30T09:01:10.918Z,8.35
2023-03-30T09:05:22.703Z,9.73
2023-03-30T09:09:29.729Z,8.60
2023-03-30T09:13:37.970Z,8.70
2023-03-30T09:17:44.042Z,7.18
2023-03-30T09:21:48.505Z,6.57
2023-03-30T09:26:02.985Z,6.05
2023-03-30T09:30:18.783Z,7.60
2023-03-30T09:34:28.510Z,6.22
2023-03-30T09:38:32.348Z,7.35
2023-03-30T09:42:45.214Z,8.45
2023-03-30T09:46:50.746Z,5.88
2023-03-30T09:50:53.972Z,6.40
2023-03-30T09:54:57.422Z,5.60
2023-03-30T09:59:21.477Z,7.28
2023-03-30T10:03:27.627Z,4.50
2023-03-30T10:07:34.461Z,5.72
2023-03-30T10:11:42.261Z,5.13
2023-03-30T10:15:48.633Z,4.97
2023-03-30T10:20:07.231Z,5.32
2023-03-30T10:24:23.855Z,4.75
2023-03-30T10:28:28.772Z,7.25
2023-03-30T10:32:32.916Z,6.00
2023-03-30T10:36:40.799Z,5.78
2023-03-30T10:40:46.272Z,6.68
2023-03-30T10:44:52.978Z,7.15
2023-03-30T10:49:11.109Z,6.20
2023-03-30T10:53:29.169Z,8.15
2023-03-30T10:57:41.984Z,5.65
2023-03-30T11:01:55.607Z,6.78
2023-03-30T11:06:03.452Z,6.05
2023-03-30T11:10:14.793Z,5.40
2023-03-30T11:14:24.214Z,8.50
2023-03-30T11:18:34.203Z,6.00
2023-03-30T11:22:42.379Z,7.10
2023-03-30T11:26:53.390Z,6.05
2023-03-30T11:31:04.338Z,6.13
2023-03-30T11:35:15.410Z,7.68
2023-03-30T11:39:31.687Z,5.90
2023-03-30T11:43:37.341Z,7.30
2023-03-30T11:48:01.227Z,7.03
2023-03-30T11:52:13.693Z,6.03
2023-03-30T11:56:26.187Z,8.60
2023-03-30T12:00:48.380Z,6.70
2023-03-30T12:04:57.974Z,6.35
2023-03-30T12:09:24.390Z,6.35
2023-03-30T12:13:38.160Z,5.03
2023-03-30T12:17:54.720Z,7.05
2023-03-30T12:22:04.274Z,5.75
2023-03-30T12:26:11.732Z,5.85
2023-03-30T12:30:24.605Z,5.53
2023-03-30T12:34:32.986Z,6.40
2023-03-30T12:38:39.301Z,5.82
2023-03-30T12:42:54.437Z,4.82
2023-03-30T12:47:12.552Z,6.30
2023-03-30T12:51:32.050Z,5.40
2023-03-30T12:55:45.536Z,7.40
2023-03-30T13:00:07.359Z,7.00
2023-03-30T13:04:13.762Z,5.10
2023-03-30T13:08:23.316Z,6.55
2023-03-30T13:12:33.615Z,5.85
2023-03-30T13:17:16.869Z,6.00
2023-03-30T13:21:23.952Z,5.60
2023-03-30T13:25:38.532Z,5.07
2023-03-30T13:29:42.484Z,8.85
2023-03-30T13:33:51.176Z,5.72
2023-03-30T13:38:12.820Z,6.13
2023-03-30T13:42:29.785Z,5.85
2023-03-30T13:46:39.343Z,5.35
2023-03-30T13:50:49.513Z,6.20
2023-03-30T13:54:53.317Z,7.88
2023-03-30T13:59:06.239Z,6.88
2023-03-30T14:03:32.414Z,9.35
2023-03-30T14:07:43.457Z,6.35
2023-03-30T14:11:50.276Z,6.43
2023-03-30T14:15:56.412Z,6.35
2023-03-30T14:20:13.245Z,9.07
2023-03-30T14:24:18.816Z,8.48
2023-03-30T14:28:22.515Z,6.60
2023-03-30T14:32:27.215Z,5.88
2023-03-30T14:36:30.642Z,7.93
2023-03-30T14:40:39.139Z,7.30
2023-03-30T14:44:42.657Z,7.10
2023-03-30T14:48:50.715Z,8.02
2023-03-30T14:52:54.632Z,10.18
2023-03-30T14:57:00.077Z,8.50
2023-03-30T15:01:09.811Z,7.25
2023-03-30T15:05:17.998Z,9.98
2023-03-30T15:09:22.884Z,6.38
2023-03-30T15:13:31.937Z,5.68
2023-03-30T15:17:36.561Z,5.85
2023-03-30T15:21:41.754Z,6.03
2023-03-30T15:25:45.605Z,4.25
2023-03-30T15:29:49.364Z,5.95
2023-03-30T15:33:54.130Z,7.15
2023-03-30T15:38:00.343Z,4.95
2023-03-30T15:42:06.193Z,5.95
2023-03-30T15:46:14.656Z,5.40
2023-03-30T15:50:20.520Z,6.10
2023-03-30T15:54:31.397Z,5.63
2023-03-30T15:58:35.847Z,6.75
2023-03-30T16:02:41.057Z,9.13
2023-03-30T16:06:46.673Z,8.05
2023-03-30T16:10:55.350Z,7.65
2023-03-30T16:14:59.631Z,5.72
2023-03-30T16:19:02.781Z,6.30
2023-03-30T16:23:08.434Z,6.85
2023-03-30T16:27:14.400Z,6.80
2023-03-30T16:31:20.792Z,9.85
2023-03-30T16:35:23.933Z,6.30
2023-03-30T16:39:28.930Z,6.00
2023-03-30T16:43:33.532Z,7.75
2023-03-30T16:47:38.127Z,6.28
2023-03-30T16:51:41.578Z,5.43
2023-03-30T16:55:44.889Z,6.60
2023-03-30T16:59:49.433Z,9.30
2023-03-30T17:03:52.576Z,6.70
2023-03-30T17:07:56.240Z,5.65
2023-03-30T17:11:59.301Z,8.27
2023-03-30T17:16:03.909Z,7.57
2023-03-30T17:20:22.368Z,5.93
2023-03-30T17:24:25.518Z,6.25
2023-03-30T17:28:30.287Z,7.50
2023-03-30T17:32:34.726Z,8.23
2023-03-30T17:36:37.953Z,6.18
2023-03-30T17:40:41.009Z,4.53
2023-03-30T17:44:44.750Z,3.92
2023-03-30T17:48:51.213Z,4.88
2023-03-30T17:52:55.614Z,2.20
2023-03-30T17:56:58.632Z,3.50
2023-03-30T18:01:04.229Z,3.85
2023-03-30T18:05:09.926Z,2.35
2023-03-30T18:09:16.210Z,2.75
2023-03-30T18:13:20.128Z,3.28
2023-03-30T18:17:25.213Z,3.20
2023-03-30T18:21:29.655Z,1.50
2023-03-30T18:25:33.130Z,3.35
2023-03-30T18:29:37.769Z,3.15
2023-03-30T18:33:40.913Z,3.42
2023-03-30T18:37:45.937Z,2.63
2023-03-30T18:41:49.353Z,4.15
2023-03-30T18:45:52.785Z,2.35
2023-03-30T18:49:55.944Z,1.20
2023-03-30T18:54:00.356Z,3.63
2023-03-30T18:58:06.544Z,1.02
2023-03-30T19:02:10.499Z,1.23
2023-03-30T19:06:18.433Z,1.55
2023-03-30T19:10:26.711Z,1.40
2023-03-30T19:14:29.920Z,0.90
2023-03-30T19:18:33.083Z,1.80
2023-03-30T19:22:36.217Z,1.00
2023-03-30T19:26:41.031Z,1.67
2023-03-30T19:30:44.615Z,1.75
2023-03-30T19:34:48.112Z,3.17
2023-03-30T19:38:51.232Z,1.40
2023-03-30T19:42:56.059Z,1.40
2023-03-30T19:47:03.921Z,1.00
2023-03-30T19:51:07.385Z,0.98
2023-03-30T19:55:11.487Z,1.30
2023-03-30T19:59:16.868Z,1.92
2023-03-30T20:03:21.304Z,2.88
2023-03-30T20:07:24.627Z,1.73
2023-03-30T20:11:27.853Z,1.40
2023-03-30T20:15:32.512Z,1.50
2023-03-30T20:19:35.733Z,1.23
2023-03-30T20:23:38.779Z,2.53
2023-03-30T20:27:41.846Z,1.17
2023-03-30T20:31:46.482Z,3.55
2023-03-30T20:35:51.978Z,1.38
2023-03-30T20:40:03.547Z,1.27
2023-03-30T20:44:11.321Z,1.67
2023-03-30T20:48:26.433Z,2.72
2023-03-30T20:52:30.765Z,1.38
2023-03-30T20:56:33.932Z,1.30
2023-03-30T21:00:37.033Z,1.85
2023-03-30T21:04:43.239Z,2.63
2023-03-30T21:08:46.620Z,1.50
2023-03-30T21:12:49.736Z,1.45
2023-03-30T21:16:52.835Z,1.65
2023-03-30T21:20:57.872Z,2.10
2023-03-30T21:25:01.264Z,2.40
2023-03-30T21:29:04.888Z,2.03
2023-03-30T21:33:08.492Z,3.03
2023-03-30T21:37:13.198Z,2.55
2023-03-30T21:41:17.586Z,1.40
2023-03-30T21:45:20.850Z,2.40
2023-03-30T21:49:24.119Z,1.70
2023-03-30T21:53:30.318Z,2.45
2023-03-30T21:57:33.600Z,2.38
2023-03-30T22:01:36.756Z,1.70
2023-03-30T22:05:40.393Z,2.65
2023-03-30T22:09:45.001Z,2.03
2023-03-30T22:13:48.922Z,2.50
2023-03-30T22:17:52.169Z,1.25
2023-03-30T22:21:55.699Z,1.10
2023-03-30T22:26:00.990Z,1.15
2023-03-30T22:30:04.961Z,1.90
2023-03-30T22:34:08.565Z,1.90
2023-03-30T22:38:12.265Z,3.63
2023-03-30T22:42:16.678Z,3.35
2023-03-30T22:46:19.752Z,1.63
2023-03-30T22:50:22.993Z,2.00
2023-03-30T22:54:26.319Z,2.40
2023-03-30T22:58:30.710Z,2.47
2023-03-30T23:02:33.808Z,2.38
2023-03-30T23:06:37.301Z,1.58
2023-03-30T23:10:43.814Z,2.00
2023-03-30T23:14:48.276Z,1.80
2023-03-30T23:18:51.951Z,1.85
2023-03-30T23:22:55.124Z,2.72
2023-03-30T23:26:58.179Z,1.55
2023-03-30T23:31:09.137Z,1.55
2023-03-30T23:35:12.221Z,0.95
2023-03-30T23:39:15.244Z,1.30
2023-03-30T23:43:18.270Z,1.25
2023-03-30T23:47:22.672Z,1.80
2023-03-30T23:51:25.808Z,1.27
2023-03-30T23:55:29.175Z,0.98
2023-03-30T23:59:32.173Z,1.58
